»·PEaware :: RAKE11 KLSV-KLSV

RAKE11 :: KLSV-KLSV

FLIGHT INFORMATION

Flight Status: Arrived
Operator: Unknown
More flights by this operator :: More flights under this callsign
Pilot: Anonymous 3903 (3903)
Aircraft: NORTHROP F-5 FREEDON FIGHTER
(F5)
More flights by this aircraft type
Origin: KLSV Nellis AFB
United States
Destination: KLSV Nellis AFB
United States
More flights between these airports :: More routes between these airports
Route: +
File this flight plan on PilotEdge
Remarks:
Altitude:
(Current/Filed)
0ft
Speed:
(Current/Filed)
0kts
Departed: 28-Feb-17 12:24 PM
Arrived: 28-Feb-17 01:02 PM
Distance/Time
Traveled:
1nm/0:38
Distance/Time
To Go:
Arrived

Flight Plot

Page will automatically refresh every two minutes.


Map Options




Map Legend


Flown Route
Filed Route
Departure Airport
Arrival Airport
Navaid (VOR, NDB)
Fix

Horizontal Profiles

Position Reports

Time Latitude Longitude Heading Altitude Ground
Speed
28-Feb-17 12:07 36.231056 -115.046521 220 1852ft 0kts
28-Feb-17 12:08 36.231056 -115.046521 220 1852ft 0kts
28-Feb-17 12:09 36.231056 -115.046521 220 1852ft 0kts
28-Feb-17 12:10 36.231056 -115.046521 220 1852ft 0kts
28-Feb-17 12:11 36.231056 -115.046521 220 1852ft 0kts
28-Feb-17 12:12 36.231056 -115.046521 220 1852ft 0kts
28-Feb-17 12:13 36.231056 -115.046521 220 1852ft 0kts
28-Feb-17 12:14 36.231056 -115.046521 220 1852ft 0kts
28-Feb-17 12:15 36.231056 -115.046521 220 1852ft 0kts
28-Feb-17 12:16 36.231056 -115.046521 220 1852ft 0kts
28-Feb-17 12:17 36.228833 -115.046856 220 1850ft 22kts
28-Feb-17 12:18 36.227148 -115.047945 130 1848ft 0kts
28-Feb-17 12:19 36.227148 -115.047945 130 1848ft 0kts
28-Feb-17 12:20 36.227111 -115.047651 42 1847ft 0kts
28-Feb-17 12:21 36.227111 -115.047651 42 1847ft 0kts
28-Feb-17 12:22 36.227111 -115.047651 42 1847ft 0kts
28-Feb-17 12:23 36.227111 -115.047651 42 1847ft 0kts
28-Feb-17 12:24 36.227018 -115.046404 39 1846ft 0kts
28-Feb-17 12:25 36.268023 -115.018106 349 3567ft 253kts
28-Feb-17 12:26 36.336842 -115.056991 331 7240ft 277kts
28-Feb-17 12:27 36.416014 -115.065382 33 8132ft 309kts
28-Feb-17 12:28 36.452754 -114.979005 72 8885ft 295kts
28-Feb-17 12:29 36.475659 -114.886921 71 8834ft 273kts
28-Feb-17 12:30 36.494380 -114.789923 79 8930ft 311kts
28-Feb-17 12:31 36.506873 -114.682423 89 8957ft 291kts
28-Feb-17 12:32 36.511351 -114.588930 57 8833ft 261kts
28-Feb-17 12:33 36.568215 -114.596189 280 8970ft 269kts
28-Feb-17 12:34 36.533377 -114.677724 226 8929ft 278kts
28-Feb-17 12:35 36.481027 -114.745458 221 8281ft 269kts
28-Feb-17 12:36 36.425663 -114.808757 220 6564ft 274kts
28-Feb-17 12:37 36.370902 -114.873154 223 4824ft 264kts
28-Feb-17 12:38 36.323078 -114.933505 224 3934ft 224kts
28-Feb-17 12:39 36.279258 -114.985356 220 2788ft 215kts
28-Feb-17 12:40 36.232145 -115.036899 222 3626ft 268kts
28-Feb-17 12:41 36.215466 -115.124343 303 8452ft 304kts
28-Feb-17 12:42 36.290304 -115.130808 31 13393ft 299kts
28-Feb-17 12:43 36.364675 -115.071634 31 15236ft 322kts
28-Feb-17 12:44 36.436193 -115.014944 33 15129ft 296kts
28-Feb-17 12:45 36.509663 -114.958848 21 15306ft 323kts
28-Feb-17 12:46 36.598522 -114.929652 11 15212ft 323kts
28-Feb-17 12:47 36.684495 -114.906373 9 15143ft 308kts
28-Feb-17 12:48 36.767047 -114.885113 19 15184ft 316kts
28-Feb-17 12:49 36.822822 -114.794325 59 15264ft 354kts
28-Feb-17 12:50 36.889461 -114.728476 341 15174ft 304kts
28-Feb-17 12:51 36.896262 -114.803577 210 15138ft 283kts
28-Feb-17 12:52 36.816883 -114.845704 198 15297ft 314kts
28-Feb-17 12:53 36.735719 -114.876332 194 15249ft 293kts
28-Feb-17 12:54 36.655613 -114.900442 191 15240ft 317kts
28-Feb-17 12:55 36.574182 -114.887035 106 14404ft 314kts
28-Feb-17 12:56 36.536691 -114.789031 126 12520ft 295kts
28-Feb-17 12:57 36.465763 -114.775302 212 8785ft 283kts
28-Feb-17 12:58 36.409400 -114.835282 221 5581ft 260kts
28-Feb-17 12:59 36.357292 -114.893691 221 4386ft 244kts
28-Feb-17 13:00 36.309735 -114.950227 224 3209ft 215kts
28-Feb-17 13:01 36.268425 -115.001037 221 2379ft 191kts
28-Feb-17 13:02 36.235675 -115.036965 219 1854ft 97kts
28-Feb-17 13:03 36.227400 -115.047583 310 1848ft 7kts
28-Feb-17 13:04 36.230960 -115.046333 40 1851ft 4kts

Navigation Log

Ident Type
1. KLSV Airport
2. KLSV Airport